Time;durP1;ratioP1;P1;durP2;ratioP2;P2;SDS_P1;SDS_P2;PMS_P1;PMS_P2;Temp;Humidity;BMP_temperature;BMP_pressure;BME280_temperature;BME280_humidity;BME280_pressure;Samples;Min_cycle;Max_cycle;Signal;HPM_P1;HPM_P2
2023/12/19 00:00:01;;;;;;;;;;;;;;;-2.70;100.00;98619.55;110346;1238;68599;-60
2023/12/19 00:02:32;;;;;;;;;;;;;;;-2.69;100.00;98617.67;110616;1241;59637;-60
2023/12/19 00:05:09;;;;;;;;;;;;;;;-2.66;100.00;98615.46;110390;1242;59679;-59
2023/12/19 00:07:40;;;;;;;;;;;;;;;-2.67;100.00;98603.86;110388;1238;71412;-58
2023/12/19 00:10:12;;;;;;;;;;;;;;;-2.66;100.00;98606.07;110369;1241;67842;-59
2023/12/19 00:12:42;;;;;;;;;;;;;;;-2.68;100.00;98605.05;110476;1241;68348;-59
2023/12/19 00:15:13;;;;;;;;;;;;;;;-2.66;100.00;98606.23;110482;1239;60044;-59
2023/12/19 00:17:44;;;;;;;;;;;;;;;-2.61;100.00;98599.06;110341;1238;59689;-59
2023/12/19 00:20:15;;;;;;;;;;;;;;;-2.62;100.00;98594.80;110447;1238;71700;-58
2023/12/19 00:22:47;;;;;;;;;;;;;;;-2.64;100.00;98594.96;110458;1240;69086;-58
2023/12/19 00:25:19;;;;;;;;;;;;;;;-2.68;100.00;98589.69;110362;1241;69311;-59
2023/12/19 00:27:52;;;;;;;;;;;;;;;-2.70;100.00;98584.91;110349;1241;59698;-58
2023/12/19 00:30:26;;;;;;;;;;;;;;;-2.71;100.00;98587.31;110425;1238;59810;-60
2023/12/19 00:32:56;;;;;;;;;;;;;;;-2.74;100.00;98584.91;110369;1238;71520;-59
2023/12/19 00:35:26;;;;;;;;;;;;;;;-2.71;100.00;98577.59;110403;1240;69766;-59
2023/12/19 00:37:56;;;;;;;;;;;;;;;-2.64;100.00;98582.86;110507;1240;69273;-59
2023/12/19 00:40:27;;;;;;;;;;;;;;;-2.77;100.00;98587.83;110547;1241;59659;-60
2023/12/19 00:42:57;;;;;;;;;;;;;;;-2.78;100.00;98587.81;110442;1241;59659;-60
2023/12/19 00:45:29;;;;;;;;;;;;;;;-2.78;100.00;98590.72;110378;1238;71448;-60
2023/12/19 00:47:59;;;;;;;;;;;;;;;-2.80;100.00;98595.16;110428;1240;69281;-60
2023/12/19 00:50:29;;;;;;;;;;;;;;;-2.81;100.00;98592.77;110383;1240;69279;-61
2023/12/19 00:53:00;;;;;;;;;;;;;;;-2.84;100.00;98590.20;110470;1241;59698;-59
2023/12/19 00:55:32;;;;;;;;;;;;;;;-2.86;100.00;98591.08;110444;1241;59676;-60
2023/12/19 00:58:03;;;;;;;;;;;;;;;-2.87;100.00;98594.14;110479;1241;70858;-59
2023/12/19 01:00:36;;;;;;;;;;;;;;;-2.89;100.00;98589.70;110272;1238;68272;-60
2023/12/19 01:03:07;;;;;;;;;;;;;;;-2.91;100.00;98586.46;110410;1242;69166;-60
2023/12/19 01:05:39;;;;;;;;;;;;;;;-2.92;100.00;98584.41;110485;1238;59695;-60
2023/12/19 01:08:10;;;;;;;;;;;;;;;-2.92;100.00;98590.21;110412;1238;59705;-60
2023/12/19 01:10:42;;;;;;;;;;;;;;;-2.90;100.00;98586.13;110368;1242;71473;-61
2023/12/19 01:13:14;;;;;;;;;;;;;;;-2.87;100.00;98590.20;110415;1241;69312;-60
2023/12/19 01:15:46;;;;;;;;;;;;;;;-2.86;100.00;98588.86;110403;1241;68512;-60
2023/12/19 01:18:17;;;;;;;;;;;;;;;-2.86;100.00;98580.33;110498;1240;59682;-60
2023/12/19 01:20:53;;;;;;;;;;;;;;;-2.89;100.00;98580.84;110483;1242;59674;-60
2023/12/19 01:23:25;;;;;;;;;;;;;;;-2.91;100.00;98578.79;110604;1240;70477;-60
2023/12/19 01:25:57;;;;;;;;;;;;;;;-2.91;100.00;98581.69;110479;1241;69184;-59
2023/12/19 01:28:33;;;;;;;;;;;;;;;-2.95;100.00;98583.40;110350;1241;69667;-60
2023/12/19 01:31:05;;;;;;;;;;;;;;;-2.96;100.00;98581.02;110355;1241;59737;-61
2023/12/19 01:33:36;;;;;;;;;;;;;;;-2.96;100.00;98587.31;110403;1238;59722;-60
2023/12/19 01:36:07;;;;;;;;;;;;;;;-3.03;100.00;98591.76;110528;1241;71521;-58
2023/12/19 01:38:37;;;;;;;;;;;;;;;-3.01;100.00;98589.20;110601;1240;69260;-59
2023/12/19 01:41:10;;;;;;;;;;;;;;;-3.03;100.00;98593.98;110461;1238;68327;-59
2023/12/19 01:43:42;;;;;;;;;;;;;;;-3.09;100.00;98595.52;110362;1241;59686;-58
2023/12/19 01:46:14;;;;;;;;;;;;;;;-3.08;100.00;98593.64;110434;1240;59687;-58
2023/12/19 01:48:46;;;;;;;;;;;;;;;-3.09;100.00;98594.83;110511;1245;71377;-59
2023/12/19 01:51:17;;;;;;;;;;;;;;;-3.09;100.00;98595.52;110404;1238;69141;-59
2023/12/19 01:53:51;;;;;;;;;;;;;;;-3.06;100.00;98600.63;109463;1242;1219281;-59
2023/12/19 01:56:25;;;;;;;;;;;;;;;-3.02;100.00;98593.80;110303;1242;59694;-58
2023/12/19 01:58:56;;;;;;;;;;;;;;;-2.99;100.00;98587.33;110489;1242;59718;-60
2023/12/19 02:01:28;;;;;;;;;;;;;;;-2.97;100.00;98575.55;110493;1240;71724;-58
2023/12/19 02:04:04;;;;;;;;;;;;;;;-2.97;100.00;98566.34;110432;1238;68965;-58
2023/12/19 02:06:36;;;;;;;;;;;;;;;-3.02;100.00;98566.68;110445;1241;69534;-61
2023/12/19 02:09:09;;;;;;;;;;;;;;;-3.03;100.00;98561.23;110525;1241;59680;-61
2023/12/19 02:11:40;;;;;;;;;;;;;;;-3.04;100.00;98556.46;110449;1238;59756;-59
2023/12/19 02:14:12;;;;;;;;;;;;;;;-3.09;100.00;98555.94;110530;1241;71332;-60
2023/12/19 02:16:42;;;;;;;;;;;;;;;-3.10;100.00;98556.29;110582;1244;68746;-59
2023/12/19 02:19:14;;;;;;;;;;;;;;;-3.12;100.00;98558.16;110621;1238;68392;-59
2023/12/19 02:21:44;;;;;;;;;;;;;;;-3.10;100.00;98555.27;110434;1240;59689;-59
2023/12/19 02:24:15;;;;;;;;;;;;;;;-3.07;100.00;98550.31;110508;1241;59702;-60
2023/12/19 02:26:51;;;;;;;;;;;;;;;-3.04;100.00;98549.80;110490;1238;71394;-60
2023/12/19 02:29:23;;;;;;;;;;;;;;;-3.04;100.00;98544.17;110404;1241;69252;-60
2023/12/19 02:31:53;;;;;;;;;;;;;;;-3.02;100.00;98550.66;110448;1239;68406;-59
2023/12/19 02:34:29;;;;;;;;;;;;;;;-2.99;100.00;98554.41;110431;1241;59744;-59
2023/12/19 02:36:59;;;;;;;;;;;;;;;-2.98;100.00;98550.65;110406;1240;59688;-59
2023/12/19 02:39:30;;;;;;;;;;;;;;;-2.96;100.00;98553.20;110494;1238;72023;-60
2023/12/19 02:42:01;;;;;;;;;;;;;;;-2.94;100.00;98549.11;110382;1240;69548;-59
2023/12/19 02:44:33;;;;;;;;;;;;;;;-2.95;100.00;98549.29;110449;1241;69127;-60
2023/12/19 02:47:04;;;;;;;;;;;;;;;-2.95;100.00;98543.65;110531;1238;59674;-60
2023/12/19 02:49:36;;;;;;;;;;;;;;;-2.97;100.00;98550.30;110508;1240;59675;-60
2023/12/19 02:52:07;;;;;;;;;;;;;;;-2.99;100.00;98557.82;110400;1238;71500;-59
2023/12/19 02:54:39;;;;;;;;;;;;;;;-3.00;100.00;98555.95;110436;1238;68403;-60
2023/12/19 02:57:16;;;;;;;;;;;;;;;-3.02;100.00;98552.86;110490;1240;68814;-59
2023/12/19 02:59:47;;;;;;;;;;;;;;;-3.01;100.00;98548.42;110432;1241;60084;-59
2023/12/19 03:02:20;;;;;;;;;;;;;;;-3.00;100.00;98548.26;110360;1241;59689;-59
2023/12/19 03:04:55;;;;;;;;;;;;;;;-2.96;100.00;98551.83;110423;1238;70851;-60
2023/12/19 03:07:28;;;;;;;;;;;;;;;-2.91;100.00;98554.05;110526;1241;69278;-59
2023/12/19 03:10:05;;;;;;;;;;;;;;;-2.85;100.00;98555.75;110515;1239;68547;-59
2023/12/19 03:12:41;;;;;;;;;;;;;;;-2.80;100.00;98550.46;110511;1240;59718;-60
2023/12/19 03:15:13;;;;;;;;;;;;;;;-2.77;100.00;98543.45;110464;1241;59684;-59
2023/12/19 03:17:45;;;;;;;;;;;;;;;-2.77;100.00;98538.17;110402;1238;71278;-60
2023/12/19 03:20:22;;;;;;;;;;;;;;;-2.75;100.00;98538.16;110271;1242;68561;-57
2023/12/19 03:23:00;;;;;;;;;;;;;;;-2.78;100.00;98539.37;110355;1240;68302;-59
2023/12/19 03:25:33;;;;;;;;;;;;;;;-2.82;100.00;98548.08;110429;1241;59738;-59
2023/12/19 03:28:04;;;;;;;;;;;;;;;-2.81;100.00;98550.64;110557;1241;59722;-60
2023/12/19 03:30:36;;;;;;;;;;;;;;;-2.80;100.00;98543.30;110476;1240;70932;-59
2023/12/19 03:33:09;;;;;;;;;;;;;;;-2.81;100.00;98539.89;110407;1241;69082;-60
2023/12/19 03:35:40;;;;;;;;;;;;;;;-2.82;100.00;98546.71;110419;1240;68513;-60
2023/12/19 03:38:16;;;;;;;;;;;;;;;-2.84;100.00;98552.67;110348;1240;59734;-59
2023/12/19 03:40:46;;;;;;;;;;;;;;;-2.85;100.00;98550.30;110401;1241;59737;-60
2023/12/19 03:43:17;;;;;;;;;;;;;;;-2.89;100.00;98547.58;110544;1238;70474;-59
2023/12/19 03:45:50;;;;;;;;;;;;;;;-2.91;100.00;98546.71;110388;1238;69269;-60
2023/12/19 03:48:22;;;;;;;;;;;;;;;-2.73;100.00;98541.06;110482;1241;69560;-60
2023/12/19 03:50:55;;;;;;;;;;;;;;;-2.70;100.00;98537.98;110465;1240;59685;-59
2023/12/19 03:53:25;;;;;;;;;;;;;;;-2.72;100.00;98535.94;110373;1241;59667;-59
2023/12/19 03:55:57;;;;;;;;;;;;;;;-2.77;100.00;98537.49;110479;1241;69889;-58
2023/12/19 03:58:28;;;;;;;;;;;;;;;-2.80;100.00;98536.30;110504;1241;69151;-62
2023/12/19 04:01:01;;;;;;;;;;;;;;;-2.85;100.00;98526.92;110286;1242;69313;-58
2023/12/19 04:03:33;;;;;;;;;;;;;;;-2.85;100.00;98526.25;110528;1238;59757;-59
2023/12/19 04:06:06;;;;;;;;;;;;;;;-2.85;100.00;98527.77;110438;1243;59703;-58
2023/12/19 04:08:38;;;;;;;;;;;;;;;-2.82;100.00;98527.94;110482;1241;70824;-59
2023/12/19 04:11:08;;;;;;;;;;;;;;;-2.83;100.00;98524.02;110475;1238;68047;-61
2023/12/19 04:13:39;;;;;;;;;;;;;;;-2.90;100.00;98522.66;110539;1238;68714;-59
2023/12/19 04:16:11;;;;;;;;;;;;;;;-2.93;100.00;98519.77;110623;1238;59710;-59
2023/12/19 04:18:43;;;;;;;;;;;;;;;-2.96;100.00;98520.45;110506;1241;59621;-58
2023/12/19 04:21:14;;;;;;;;;;;;;;;-2.97;100.00;98517.56;110527;1242;71205;-60
2023/12/19 04:23:46;;;;;;;;;;;;;;;-2.97;100.00;98517.20;110612;1238;68617;-61
2023/12/19 04:26:19;;;;;;;;;;;;;;;-2.96;100.00;98514.48;110629;1239;69262;-61
2023/12/19 04:28:49;;;;;;;;;;;;;;;-2.95;100.00;98516.71;110658;1237;59715;-60
2023/12/19 04:31:19;;;;;;;;;;;;;;;-2.94;100.00;98521.48;110846;1238;59669;-60
2023/12/19 04:33:49;;;;;;;;;;;;;;;-2.92;100.00;98523.85;110779;1239;72010;-60
2023/12/19 04:36:20;;;;;;;;;;;;;;;-2.93;100.00;98522.32;110491;1240;69168;-61
2023/12/19 04:38:49;;;;;;;;;;;;;;;-2.92;100.00;98523.67;110511;1238;68764;-61
2023/12/19 04:41:21;;;;;;;;;;;;;;;-2.90;100.00;98525.05;110514;1240;59750;-58
2023/12/19 04:43:52;;;;;;;;;;;;;;;-2.91;100.00;98520.62;110681;1241;59693;-61
2023/12/19 04:46:23;;;;;;;;;;;;;;;-2.95;100.00;98518.75;110610;1238;71411;-59
2023/12/19 04:48:55;;;;;;;;;;;;;;;-2.95;100.00;98520.45;110596;1239;68309;-59
2023/12/19 04:51:26;;;;;;;;;;;;;;;-2.98;100.00;98522.85;110557;1239;69010;-60
2023/12/19 04:53:56;;;;;;;;;;;;;;;-2.97;100.00;98520.62;110682;1238;59744;-60
2023/12/19 04:56:25;;;;;;;;;;;;;;;-2.97;100.00;98519.59;110530;1238;59721;-59
2023/12/19 04:58:55;;;;;;;;;;;;;;;-3.01;100.00;98521.48;110487;1239;71218;-60
2023/12/19 05:01:25;;;;;;;;;;;;;;;-3.05;100.00;98520.47;110437;1237;68163;-60
2023/12/19 05:03:57;;;;;;;;;;;;;;;-3.07;100.00;98520.46;110597;1239;68490;-60
2023/12/19 05:06:26;;;;;;;;;;;;;;;-3.10;100.00;98525.94;110385;1238;59697;-60
2023/12/19 05:08:56;;;;;;;;;;;;;;;-3.08;100.00;98528.31;110662;1239;59733;-59
2023/12/19 05:11:26;;;;;;;;;;;;;;;-3.06;100.00;98535.48;110565;1239;71400;-59
2023/12/19 05:13:56;;;;;;;;;;;;;;;-3.06;100.00;98543.32;110642;1237;69619;-59
2023/12/19 05:16:27;;;;;;;;;;;;;;;-3.05;100.00;98542.14;110584;1239;68559;-58
2023/12/19 05:18:58;;;;;;;;;;;;;;;-3.03;100.00;98541.27;110465;1239;59746;-58
2023/12/19 05:21:28;;;;;;;;;;;;;;;-3.02;100.00;98547.58;110571;1239;59744;-61
2023/12/19 05:23:58;;;;;;;;;;;;;;;-3.02;100.00;98549.96;110729;1239;71122;-59
2023/12/19 05:26:27;;;;;;;;;;;;;;;-2.99;100.00;98546.05;110568;1239;68502;-60
2023/12/19 05:28:57;;;;;;;;;;;;;;;-2.97;100.00;98549.62;110587;1237;69451;-58
2023/12/19 05:31:27;;;;;;;;;;;;;;;-2.94;100.00;98551.84;110595;1237;60067;-59
2023/12/19 05:33:58;;;;;;;;;;;;;;;-2.93;100.00;98557.64;110542;1239;59666;-59
2023/12/19 05:36:27;;;;;;;;;;;;;;;-2.93;100.00;98553.02;110712;1239;71279;-60
2023/12/19 05:38:57;;;;;;;;;;;;;;;-2.94;100.00;98550.15;110675;1239;69395;-60
2023/12/19 05:41:26;;;;;;;;;;;;;;;-2.96;100.00;98546.55;110423;1239;67417;-59
2023/12/19 05:43:59;;;;;;;;;;;;;;;-2.98;100.00;98543.48;110496;1239;60115;-58
2023/12/19 05:46:31;;;;;;;;;;;;;;;-3.01;100.00;98545.20;110248;1238;59677;-62
2023/12/19 05:49:01;;;;;;;;;;;;;;;-3.08;100.00;98544.69;110398;1241;71277;-62
2023/12/19 05:51:31;;;;;;;;;;;;;;;-3.08;100.00;98543.33;110475;1242;69280;-62
2023/12/19 05:54:01;;;;;;;;;;;;;;;-3.07;100.00;98539.23;110406;1238;69275;-62
2023/12/19 05:56:31;;;;;;;;;;;;;;;-3.19;100.00;98539.74;110542;1239;59700;-62
2023/12/19 05:59:01;;;;;;;;;;;;;;;-3.24;100.00;98540.76;110708;1239;59717;-62
2023/12/19 06:01:30;;;;;;;;;;;;;;;-3.22;100.00;98535.31;110557;1238;71547;-62
2023/12/19 06:04:01;;;;;;;;;;;;;;;-3.21;100.00;98531.89;110514;1239;69274;-62
2023/12/19 06:06:32;;;;;;;;;;;;;;;-3.21;100.00;98524.57;110559;1242;69291;-62
2023/12/19 06:09:01;;;;;;;;;;;;;;;-3.21;100.00;98522.70;110629;1241;59673;-62
2023/12/19 06:11:30;;;;;;;;;;;;;;;-3.23;100.00;98524.58;110462;1237;59734;-62
2023/12/19 06:14:00;;;;;;;;;;;;;;;-3.26;100.00;98524.90;110660;1241;71225;-62
2023/12/19 06:16:30;;;;;;;;;;;;;;;-3.24;100.00;98519.96;110538;1239;69631;-62
2023/12/19 06:18:59;;;;;;;;;;;;;;;-3.23;100.00;98517.08;110543;1239;69274;-59
2023/12/19 06:21:29;;;;;;;;;;;;;;;-3.23;100.00;98516.89;110431;1241;59679;-59
2023/12/19 06:23:59;;;;;;;;;;;;;;;-3.25;100.00;98519.44;110527;1241;59731;-60
2023/12/19 06:26:28;;;;;;;;;;;;;;;-3.30;100.00;98513.14;110460;1241;72060;-59
2023/12/19 06:28:58;;;;;;;;;;;;;;;-3.31;100.00;98508.71;110667;1239;69640;-60
2023/12/19 06:31:27;;;;;;;;;;;;;;;-3.31;100.00;98507.70;110409;1240;69263;-59
2023/12/19 06:33:57;;;;;;;;;;;;;;;-3.30;100.00;98510.25;110400;1241;59690;-60
2023/12/19 06:36:28;;;;;;;;;;;;;;;-3.28;100.00;98510.93;110539;1239;59683;-61
2023/12/19 06:38:57;;;;;;;;;;;;;;;-3.26;100.00;98522.00;110474;1238;70660;-60
2023/12/19 06:41:26;;;;;;;;;;;;;;;-3.26;100.00;98523.71;110533;1241;67726;-60
2023/12/19 06:43:56;;;;;;;;;;;;;;;-3.26;100.00;98523.38;110711;1238;68558;-64
2023/12/19 06:46:26;;;;;;;;;;;;;;;-3.34;100.00;98524.73;110636;1242;60201;-58
2023/12/19 06:48:56;;;;;;;;;;;;;;;-3.22;100.00;98531.89;110510;1239;59686;-59
2023/12/19 06:51:26;;;;;;;;;;;;;;;-3.21;100.00;98533.77;110570;1239;71946;-59
2023/12/19 06:53:57;;;;;;;;;;;;;;;-3.11;100.00;98534.27;110389;1238;69615;-54
2023/12/19 06:56:26;;;;;;;;;;;;;;;-3.05;100.00;98527.81;110510;1239;69163;-56
2023/12/19 06:58:56;;;;;;;;;;;;;;;-3.02;100.00;98530.18;110472;1241;59673;-56
2023/12/19 07:01:26;;;;;;;;;;;;;;;-3.03;100.00;98537.18;110482;1239;59710;-57
2023/12/19 07:03:55;;;;;;;;;;;;;;;-3.01;100.00;98539.73;110411;1241;70825;-55
2023/12/19 07:06:25;;;;;;;;;;;;;;;-2.97;100.00;98535.64;110568;1239;69671;-57
2023/12/19 07:08:55;;;;;;;;;;;;;;;-2.93;100.00;98547.23;110400;1242;70176;-56
2023/12/19 07:11:24;;;;;;;;;;;;;;;-2.89;100.00;98548.25;110537;1241;59737;-57
2023/12/19 07:13:53;;;;;;;;;;;;;;;-2.92;100.00;98548.08;110659;1238;59763;-57
2023/12/19 07:16:25;;;;;;;;;;;;;;;-2.95;100.00;98542.45;110613;1238;71364;-54
2023/12/19 07:18:54;;;;;;;;;;;;;;;-2.87;100.00;98540.06;110548;1239;69219;-58
2023/12/19 07:21:24;;;;;;;;;;;;;;;-2.84;100.00;98544.48;110565;1238;68762;-56
2023/12/19 07:23:54;;;;;;;;;;;;;;;-2.79;100.00;98539.02;110416;1240;59827;-53
2023/12/19 07:26:27;;;;;;;;;;;;;;;-2.73;100.00;98532.02;110622;1239;59665;-56
2023/12/19 07:28:58;;;;;;;;;;;;;;;-2.69;100.00;98523.30;110479;1242;70213;-54
2023/12/19 07:31:28;;;;;;;;;;;;;;;-2.65;100.00;98521.08;110578;1238;69811;-57
2023/12/19 07:33:58;;;;;;;;;;;;;;;-2.62;100.00;98522.27;110508;1242;69881;-55
2023/12/19 07:36:28;;;;;;;;;;;;;;;-2.57;100.00;98509.96;110298;1238;60108;-56
2023/12/19 07:38:58;;;;;;;;;;;;;;;-2.57;100.00;98503.30;110539;1242;59771;-56
2023/12/19 07:41:27;;;;;;;;;;;;;;;-2.50;100.00;98504.65;110538;1239;70287;-55
2023/12/19 07:43:56;;;;;;;;;;;;;;;-2.45;100.00;98502.07;110594;1239;68510;-56
2023/12/19 07:46:26;;;;;;;;;;;;;;;-2.31;100.00;98498.27;110514;1239;69847;-55
2023/12/19 07:48:55;;;;;;;;;;;;;;;-2.13;100.00;98496.30;110547;1239;59654;-56
2023/12/19 07:51:24;;;;;;;;;;;;;;;-2.08;100.00;98493.88;110425;1242;59670;-56
2023/12/19 07:53:54;;;;;;;;;;;;;;;-2.14;100.00;98494.94;110576;1237;71356;-56
2023/12/19 07:56:25;;;;;;;;;;;;;;;-2.10;100.00;98492.19;110580;1239;69955;-54
2023/12/19 07:58:55;;;;;;;;;;;;;;;-2.00;100.00;98495.90;110571;1239;68289;-55
2023/12/19 08:01:25;;;;;;;;;;;;;;;-1.96;100.00;98497.58;110513;1239;59763;-55
2023/12/19 08:03:54;;;;;;;;;;;;;;;-1.94;100.00;98485.10;110675;1239;59672;-56
2023/12/19 08:06:23;;;;;;;;;;;;;;;-1.99;100.00;98473.16;110544;1238;71383;-55
2023/12/19 08:08:53;;;;;;;;;;;;;;;-1.93;100.00;98471.42;110462;1239;69197;-57
2023/12/19 08:11:22;;;;;;;;;;;;;;;-1.86;100.00;98472.41;110462;1239;70221;-55
2023/12/19 08:13:52;;;;;;;;;;;;;;;-1.74;100.00;98479.68;110620;1239;59742;-56
2023/12/19 08:16:21;;;;;;;;;;;;;;;-1.71;100.00;98482.39;110536;1239;59740;-58
2023/12/19 08:18:50;;;;;;;;;;;;;;;-1.78;100.00;98468.92;110561;1239;70676;-58
2023/12/19 08:21:21;;;;;;;;;;;;;;;-1.71;100.00;98470.25;110674;1240;70115;-55
2023/12/19 08:23:51;;;;;;;;;;;;;;;-1.76;100.00;98472.69;110644;1237;69131;-53
2023/12/19 08:26:21;;;;;;;;;;;;;;;-1.73;100.00;98472.83;110460;1241;59685;-56
2023/12/19 08:28:50;;;;;;;;;;;;;;;-1.69;100.00;98471.96;110735;1238;59779;-55
2023/12/19 08:31:19;;;;;;;;;;;;;;;-1.65;100.00;98475.51;110632;1239;71664;-55
2023/12/19 08:33:49;;;;;;;;;;;;;;;-1.69;100.00;98476.39;110676;1238;68538;-57
2023/12/19 08:36:18;;;;;;;;;;;;;;;-1.64;100.00;98475.17;110566;1238;69380;-56
2023/12/19 08:39:03;;;;;;;;;;;;;;;-1.60;100.00;98470.69;110620;1239;59727;-56
2023/12/19 08:41:34;;;;;;;;;;;;;;;-1.58;100.00;98469.46;110431;1239;59744;-56
2023/12/19 08:44:04;;;;;;;;;;;;;;;-1.50;100.00;98468.55;110549;1238;71826;-56
2023/12/19 08:46:33;;;;;;;;;;;;;;;-1.46;100.00;98456.05;110510;1248;69798;-57
2023/12/19 08:49:02;;;;;;;;;;;;;;;-1.43;100.00;98452.42;110439;1242;69524;-56
2023/12/19 08:51:32;;;;;;;;;;;;;;;-1.35;100.00;98442.44;110585;1239;59734;-57
2023/12/19 08:54:00;;;;;;;;;;;;;;;-1.31;100.00;98441.20;110456;1238;59734;-56
2023/12/19 08:56:30;;;;;;;;;;;;;;;-1.29;100.00;98438.13;110557;1239;71715;-57
2023/12/19 08:59:00;;;;;;;;;;;;;;;-1.25;100.00;98439.45;110611;1239;69813;-57
2023/12/19 09:01:29;;;;;;;;;;;;;;;-1.17;100.00;98443.82;110608;1239;69850;-57
2023/12/19 09:04:00;;;;;;;;;;;;;;;-1.22;100.00;98443.20;110689;1239;59733;-57
2023/12/19 09:06:29;;;;;;;;;;;;;;;-1.19;100.00;98438.02;110513;1239;59675;-57
2023/12/19 09:08:58;;;;;;;;;;;;;;;-1.09;100.00;98437.40;110733;1238;71304;-56
2023/12/19 09:11:27;;;;;;;;;;;;;;;-1.03;100.00;98436.50;110512;1237;69661;-57
2023/12/19 09:14:00;;;;;;;;;;;;;;;-1.03;100.00;98437.71;110374;1241;69524;-55
2023/12/19 09:16:29;;;;;;;;;;;;;;;-1.11;100.00;98435.72;110477;1238;59719;-55
2023/12/19 09:19:01;;;;;;;;;;;;;;;-1.09;100.00;98432.29;110517;1239;59725;-58
2023/12/19 09:21:31;;;;;;;;;;;;;;;-1.10;100.00;98426.30;110486;1237;71504;-57
2023/12/19 09:24:01;;;;;;;;;;;;;;;-1.01;100.00;98428.09;110661;1239;69211;-56
2023/12/19 09:26:31;;;;;;;;;;;;;;;-0.89;100.00;98430.02;110575;1239;68984;-58
2023/12/19 09:29:02;;;;;;;;;;;;;;;-0.77;100.00;98432.27;110598;1246;59666;-59
2023/12/19 09:31:32;;;;;;;;;;;;;;;-0.67;100.00;98433.36;110565;1245;59686;-59
2023/12/19 09:34:02;;;;;;;;;;;;;;;-0.51;100.00;98439.68;110548;1237;71762;-56
2023/12/19 09:36:34;;;;;;;;;;;;;;;-0.29;100.00;98439.41;110611;1239;69184;-58
2023/12/19 09:39:16;;;;;;;;;;;;;;;0.06;100.00;98432.24;110588;1239;69841;-57
2023/12/19 09:41:46;;;;;;;;;;;;;;;0.41;100.00;98422.96;110635;1239;59690;-57
2023/12/19 09:44:15;;;;;;;;;;;;;;;0.62;100.00;98411.13;110552;1239;59614;-56
2023/12/19 09:46:54;;;;;;;;;;;;;;;0.66;100.00;98408.31;110593;1239;71339;-59
2023/12/19 09:49:24;;;;;;;;;;;;;;;0.81;100.00;98404.79;110542;1239;69332;-58
2023/12/19 09:51:55;;;;;;;;;;;;;;;0.79;100.00;98404.32;110509;1239;69926;-60
2023/12/19 09:54:24;;;;;;;;;;;;;;;0.80;100.00;98401.04;110575;1239;59798;-60
2023/12/19 09:56:56;;;;;;;;;;;;;;;0.89;100.00;98392.27;110695;1238;59708;-58
2023/12/19 09:59:26;;;;;;;;;;;;;;;1.01;100.00;98390.16;110630;1238;72376;-58
2023/12/19 10:01:56;;;;;;;;;;;;;;;0.94;100.00;98391.16;110529;1239;68351;-58
2023/12/19 10:04:25;;;;;;;;;;;;;;;0.99;100.00;98388.48;110496;1239;69107;-58
2023/12/19 10:06:55;;;;;;;;;;;;;;;1.11;100.00;98387.92;110589;1239;59689;-58
2023/12/19 10:09:27;;;;;;;;;;;;;;;1.17;100.00;98382.48;110501;1239;59650;-57
2023/12/19 10:12:02;;;;;;;;;;;;;;;1.24;100.00;98372.55;110587;1237;71165;-58
2023/12/19 10:14:35;;;;;;;;;;;;;;;1.45;100.00;98369.55;110554;1239;68487;-57
2023/12/19 10:17:09;;;;;;;;;;;;;;;1.59;100.00;98369.42;110513;1239;68907;-57
2023/12/19 10:19:38;;;;;;;;;;;;;;;1.67;100.00;98371.65;110588;1239;59708;-57
2023/12/19 10:22:12;;;;;;;;;;;;;;;1.67;100.00;98369.58;110659;1244;59644;-58
2023/12/19 10:24:41;;;;;;;;;;;;;;;1.55;100.00;98360.41;110531;1239;70698;-57
2023/12/19 10:27:10;;;;;;;;;;;;;;;1.34;100.00;98359.80;110434;1240;69226;-58
2023/12/19 10:29:40;;;;;;;;;;;;;;;1.29;100.00;98352.70;110695;1239;70034;-58
2023/12/19 10:32:14;;;;;;;;;;;;;;;1.02;100.00;98354.11;110609;1238;59709;-57
2023/12/19 10:34:44;;;;;;;;;;;;;;;0.89;100.00;98355.04;110537;1238;59736;-56
2023/12/19 10:37:19;;;;;;;;;;;;;;;0.91;100.00;98353.79;110718;1237;70474;-55
2023/12/19 10:39:52;;;;;;;;;;;;;;;0.93;100.00;98351.70;110550;1239;69286;-57
2023/12/19 10:42:21;;;;;;;;;;;;;;;0.98;100.00;98348.52;110513;1239;69242;-57
2023/12/19 10:44:50;;;;;;;;;;;;;;;0.90;100.00;98345.06;110454;1246;59673;-58
2023/12/19 10:47:20;;;;;;;;;;;;;;;0.86;100.00;98341.88;110576;1239;59686;-57
2023/12/19 10:49:49;;;;;;;;;;;;;;;0.88;100.00;98343.91;110538;1239;70823;-57
2023/12/19 10:52:26;;;;;;;;;;;;;;;0.86;100.00;98340.00;110519;1239;68856;-57
2023/12/19 10:55:00;;;;;;;;;;;;;;;0.82;100.00;98333.04;110525;1239;69307;-57
2023/12/19 10:57:40;;;;;;;;;;;;;;;0.84;100.00;98319.61;110630;1239;59741;-57
2023/12/19 11:00:13;;;;;;;;;;;;;;;0.72;100.00;98320.34;110629;1239;59690;-57
2023/12/19 11:02:59;;;;;;;;;;;;;;;0.66;100.00;98319.27;110693;1238;71934;-56
2023/12/19 11:05:48;;;;;;;;;;;;;;;0.51;100.00;98316.98;110493;1237;70209;-57
2023/12/19 11:08:18;;;;;;;;;;;;;;;0.35;100.00;98305.23;110575;1237;69173;-57
2023/12/19 11:10:59;;;;;;;;;;;;;;;0.44;100.00;98299.44;110467;1240;59688;-57
2023/12/19 11:13:31;;;;;;;;;;;;;;;0.47;100.00;98295.08;110593;1239;59695;-57
2023/12/19 11:16:06;;;;;;;;;;;;;;;0.51;100.00;98290.91;110590;1239;71970;-56
2023/12/19 11:18:44;;;;;;;;;;;;;;;0.49;100.00;98283.39;110561;1238;68460;-58
2023/12/19 11:21:20;;;;;;;;;;;;;;;0.42;100.00;98273.92;110712;1239;69783;-57
2023/12/19 11:24:05;;;;;;;;;;;;;;;0.36;100.00;98269.76;110620;1240;59658;-57
2023/12/19 11:26:53;;;;;;;;;;;;;;;0.37;100.00;98273.67;110493;1239;59725;-57
2023/12/19 11:29:40;;;;;;;;;;;;;;;0.47;100.00;98275.88;110620;1237;71067;-57
2023/12/19 11:32:31;;;;;;;;;;;;;;;0.41;100.00;98271.86;110579;1239;68473;-57
2023/12/19 11:35:06;;;;;;;;;;;;;;;0.51;100.00;98267.76;110724;1239;69227;-55
2023/12/19 11:37:36;;;;;;;;;;;;;;;0.61;100.00;98269.61;110675;1239;59730;-57
2023/12/19 11:40:11;;;;;;;;;;;;;;;0.62;100.00;98270.10;110527;1239;59733;-57
2023/12/19 11:42:40;;;;;;;;;;;;;;;0.58;100.00;98267.44;110537;1239;71960;-59
2023/12/19 11:45:15;;;;;;;;;;;;;;;0.67;100.00;98256.27;110498;1239;69848;-57
2023/12/19 11:47:47;;;;;;;;;;;;;;;0.73;100.00;98254.61;110688;1239;69178;-58
2023/12/19 11:50:37;;;;;;;;;;;;;;;0.74;100.00;98249.80;110496;1241;59686;-58
2023/12/19 11:53:06;;;;;;;;;;;;;;;0.76;100.00;98250.61;110579;1240;59623;-56
2023/12/19 11:55:36;;;;;;;;;;;;;;;0.78;100.00;98244.58;110564;1239;72035;-53
2023/12/19 11:58:11;;;;;;;;;;;;;;;0.84;100.00;98245.47;110539;1239;69093;-53
2023/12/19 12:00:41;;;;;;;;;;;;;;;0.93;100.00;98239.11;110598;1239;69587;-55
2023/12/19 12:03:12;;;;;;;;;;;;;;;1.00;100.00;98231.56;110609;1238;59731;-59
2023/12/19 12:05:42;;;;;;;;;;;;;;;1.01;100.00;98221.76;110597;1239;59722;-58
2023/12/19 12:08:13;;;;;;;;;;;;;;;0.92;100.00;98222.13;110623;1239;71350;-56
2023/12/19 12:10:43;;;;;;;;;;;;;;;0.71;100.00;98211.27;110587;1238;69203;-57
2023/12/19 12:13:12;;;;;;;;;;;;;;;0.76;100.00;98208.23;110700;1246;70205;-59
2023/12/19 12:15:42;;;;;;;;;;;;;;;0.72;100.00;98204.70;110484;1239;59688;-57
2023/12/19 12:18:13;;;;;;;;;;;;;;;0.66;100.00;98203.98;110531;1239;59734;-58
2023/12/19 12:20:42;;;;;;;;;;;;;;;0.52;100.00;98200.14;110572;1239;71977;-56
2023/12/19 12:23:17;;;;;;;;;;;;;;;0.50;100.00;98205.52;110533;1239;69860;-56
2023/12/19 12:25:54;;;;;;;;;;;;;;;0.38;100.00;98206.76;110452;1238;69104;-57
2023/12/19 12:28:26;;;;;;;;;;;;;;;0.26;100.00;98203.77;110680;1239;60182;-56
2023/12/19 12:30:56;;;;;;;;;;;;;;;0.09;100.00;98201.32;110564;1245;59732;-56
2023/12/19 12:33:27;;;;;;;;;;;;;;;0.15;100.00;98198.80;110380;1242;71842;-58
2023/12/19 12:35:57;;;;;;;;;;;;;;;0.21;100.00;98191.48;110652;1239;69211;-56
2023/12/19 12:38:26;;;;;;;;;;;;;;;0.11;100.00;98193.21;110530;1239;69784;-57
2023/12/19 12:40:58;;;;;;;;;;;;;;;-0.09;100.00;98190.33;110473;1238;59688;-56
2023/12/19 12:43:34;;;;;;;;;;;;;;;-0.10;100.00;98182.97;110481;1238;59686;-57
2023/12/19 12:46:04;;;;;;;;;;;;;;;0.05;100.00;98182.70;110538;1238;71341;-57
2023/12/19 12:48:33;;;;;;;;;;;;;;;0.09;100.00;98182.46;110626;1238;69682;-58